| time (UTC) | temp F | wind direction | speed MPH | gust MPH | rain 1hr in | rain 24hr in | rain mn in | humidity % | barometer mb |
| 20260510013122 | 67 | 269 | 2.0 | 4.0 | 0.00 | 0.00 | 0.00 | 22 | 1017.3 |
| 20260510012122 | 67 | 217 | 2.0 | 5.0 | 0.00 | 0.00 | 0.00 | 20 | 1017.3 |
| 20260510011143 | 68 | 225 | 2.0 | 6.0 | 0.00 | 0.00 | 0.00 | 25 | 1017.3 |
| 20260510010122 | 68 | 224 | 2.0 | 6.0 | 0.00 | 0.00 | 0.00 | 20 | 1017.3 |
| 20260510005122 | 68 | 226 | 3.0 | 7.0 | 0.00 | 0.00 | 0.00 | 17 | 1017.3 |
| 20260510004122 | 69 | 257 | 4.0 | 9.0 | 0.00 | 0.00 | 0.00 | 21 | 1017.3 |
| 20260510003143 | 69 | 251 | 1.0 | 7.0 | 0.00 | 0.00 | 0.00 | 19 | 1017.2 |
| 20260510002122 | 69 | 273 | 5.0 | 9.0 | 0.00 | 0.00 | 0.00 | 18 | 1017.2 |
| 20260510001122 | 69 | 260 | 3.0 | 9.0 | 0.00 | 0.00 | 0.00 | 18 | 1017.3 |
| 20260510000122 | 69 | 252 | 2.0 | 5.0 | 0.00 | 0.00 | 0.00 | 21 | 1017.3 |
| 20260509235122 | 69 | 274 | 6.0 | 11.0 | 0.00 | 0.00 | 0.00 | 19 | 1017.3 |
| 20260509234122 | 69 | 270 | 5.0 | 12.0 | 0.00 | 0.00 | 0.00 | 19 | 1017.3 |
| 20260509233122 | 69 | 252 | 3.0 | 7.0 | 0.00 | 0.00 | 0.00 | 23 | 1017.4 |
| 20260509232122 | 69 | 273 | 4.0 | 12.0 | 0.00 | 0.00 | 0.00 | 19 | 1017.5 |
| 20260509231122 | 69 | 285 | 3.0 | 9.0 | 0.00 | 0.00 | 0.00 | 20 | 1017.6 |
| 20260509230122 | 69 | 280 | 4.0 | 10.0 | 0.00 | 0.00 | 0.00 | 20 | 1017.7 |
| 20260509225122 | 69 | 268 | 5.0 | 9.0 | 0.00 | 0.00 | 0.00 | 21 | 1017.6 |
| 20260509224122 | 70 | 257 | 4.0 | 9.0 | 0.00 | 0.00 | 0.00 | 20 | 1017.8 |
| 20260509223122 | 70 | 263 | 4.0 | 8.0 | 0.00 | 0.00 | 0.00 | 21 | 1017.8 |
| 20260509222122 | 70 | 275 | 4.0 | 11.0 | 0.00 | 0.00 | 0.00 | 25 | 1017.9 |
| 20260509221122 | 70 | 272 | 5.0 | 13.0 | 0.00 | 0.00 | 0.00 | 18 | 1018.0 |
| 20260509220122 | 70 | 266 | 5.0 | 11.0 | 0.00 | 0.00 | 0.00 | 23 | 1018.2 |
| 20260509215122 | 70 | 230 | 5.0 | 10.0 | 0.00 | 0.00 | 0.00 | 24 | 1018.0 |
| 20260509214122 | 70 | 231 | 5.0 | 9.0 | 0.00 | 0.00 | 0.00 | 21 | 1018.0 |
| 20260509213122 | 70 | 293 | 5.0 | 12.0 | 0.00 | 0.00 | 0.00 | 17 | 1018.3 |
| 20260509212122 | 69 | 266 | 6.0 | 13.0 | 0.00 | 0.00 | 0.00 | 20 | 1018.5 |
| 20260509211143 | 69 | 237 | 6.0 | 13.0 | 0.00 | 0.00 | 0.00 | 21 | 1018.3 |
| 20260509210122 | 69 | 224 | 7.0 | 14.0 | 0.00 | 0.00 | 0.00 | 20 | 1018.3 |
| 20260509205122 | 69 | 224 | 6.0 | 14.0 | 0.00 | 0.00 | 0.00 | 20 | 1018.3 |
| 20260509204122 | 69 | 229 | 5.0 | 12.0 | 0.00 | 0.00 | 0.00 | 20 | 1018.3 |
| 20260509203122 | 69 | 220 | 6.0 | 13.0 | 0.00 | 0.00 | 0.00 | 20 | 1018.2 |
| 20260509202122 | 69 | 233 | 6.0 | 14.0 | 0.00 | 0.00 | 0.00 | 21 | 1018.2 |
| 20260509201122 | 68 | 255 | 5.0 | 12.0 | 0.00 | 0.00 | 0.00 | 25 | 1018.3 |
| 20260509200122 | 68 | 245 | 7.0 | 14.0 | 0.00 | 0.00 | 0.00 | 19 | 1018.3 |
| 20260509195122 | 68 | 272 | 7.0 | 13.0 | 0.00 | 0.00 | 0.00 | 18 | 1018.5 |
| 20260509194122 | 68 | 263 | 8.0 | 14.0 | 0.00 | 0.00 | 0.00 | 21 | 1018.6 |
| 20260509193143 | 68 | 242 | 6.0 | 14.0 | 0.00 | 0.00 | 0.00 | 22 | 1018.5 |
| 20260509192122 | 67 | 237 | 6.0 | 12.0 | 0.00 | 0.00 | 0.00 | 18 | 1018.5 |
| 20260509191143 | 67 | 275 | 9.0 | 14.0 | 0.00 | 0.00 | 0.00 | 21 | 1018.7 |
| 20260509190143 | 68 | 277 | 6.0 | 14.0 | 0.00 | 0.00 | 0.00 | 20 | 1018.8 |
| 20260509185122 | 67 | 269 | 7.0 | 15.0 | 0.00 | 0.00 | 0.00 | 19 | 1018.7 |
| 20260509184143 | 66 | 265 | 8.0 | 16.0 | 0.00 | 0.00 | 0.00 | 22 | 1018.8 |
| 20260509183122 | 66 | 258 | 8.0 | 15.0 | 0.00 | 0.00 | 0.00 | 20 | 1018.7 |
| 20260509182122 | 66 | 260 | 7.0 | 12.0 | 0.00 | 0.00 | 0.00 | 28 | 1018.7 |
| 20260509181122 | 66 | 239 | 5.0 | 15.0 | 0.00 | 0.00 | 0.00 | 22 | 1018.8 |
| 20260509180122 | 66 | 256 | 6.0 | 13.0 | 0.00 | 0.00 | 0.00 | 22 | 1018.7 |
| 20260509175122 | 66 | 235 | 5.0 | 12.0 | 0.00 | 0.00 | 0.00 | 24 | 1018.8 |
| 20260509174122 | 66 | 223 | 4.0 | 9.0 | 0.00 | 0.00 | 0.00 | 22 | 1018.9 |
| 20260509173122 | 65 | 252 | 5.0 | 10.0 | 0.00 | 0.00 | 0.00 | 23 | 1018.9 |
| 20260509172122 | 65 | 265 | 5.0 | 11.0 | 0.00 | 0.00 | 0.00 | 25 | 1018.9 |
| 20260509171122 | 65 | 233 | 3.0 | 7.0 | 0.00 | 0.00 | 0.00 | 26 | 1018.9 |
| 20260509170143 | 65 | 251 | 4.0 | 11.0 | 0.00 | 0.00 | 0.00 | 26 | 1018.9 |
| 20260509165143 | 65 | 228 | 4.0 | 9.0 | 0.00 | 0.00 | 0.00 | 28 | 1018.9 |
| 20260509164122 | 65 | 262 | 6.0 | 14.0 | 0.00 | 0.00 | 0.00 | 31 | 1018.8 |
| 20260509163122 | 66 | 321 | 3.0 | 9.0 | 0.00 | 0.00 | 0.00 | 23 | 1018.8 |
| 20260509162122 | 65 | 326 | 3.0 | 8.0 | 0.00 | 0.00 | 0.00 | 25 | 1018.8 |
| 20260509161122 | 65 | 293 | 2.0 | 8.0 | 0.00 | 0.00 | 0.00 | 27 | 1018.7 |
| 20260509160122 | 64 | 290 | 3.0 | 8.0 | 0.00 | 0.00 | 0.00 | 24 | 1018.7 |
| 20260509155122 | 63 | 300 | 3.0 | 8.0 | 0.00 | 0.00 | 0.00 | 26 | 1018.8 |
| 20260509154122 | 62 | 307 | 4.0 | 9.0 | 0.00 | 0.00 | 0.00 | 29 | 1018.8 |
| 20260509153122 | 61 | 271 | 3.0 | 8.0 | 0.00 | 0.00 | 0.00 | 32 | 1018.7 |
| 20260509152122 | 59 | 151 | 1.0 | 3.0 | 0.00 | 0.00 | 0.00 | 36 | 1018.6 |
| 20260509151143 | 58 | 163 | 1.0 | 2.0 | 0.00 | 0.00 | 0.00 | 40 | 1018.7 |
| 20260509150122 | 56 | 152 | 1.0 | 3.0 | 0.00 | 0.00 | 0.00 | 40 | 1018.5 |
| 20260509145122 | 56 | 160 | 1.0 | 4.0 | 0.00 | 0.00 | 0.00 | 44 | 1018.6 |
| 20260509144122 | 55 | 126 | 1.0 | 6.0 | 0.00 | 0.00 | 0.00 | 39 | 1018.6 |
| 20260509143143 | 55 | 116 | 1.0 | 3.0 | 0.00 | 0.00 | 0.00 | 42 | 1018.4 |
| 20260509142121 | 54 | 130 | 2.0 | 4.0 | 0.00 | 0.00 | 0.00 | 43 | 1018.3 |
| 20260509141121 | 53 | 135 | 2.0 | 4.0 | 0.00 | 0.00 | 0.00 | 42 | 1018.2 |
| 20260509140121 | 52 | 284 | 0.0 | 2.0 | 0.00 | 0.00 | 0.00 | 41 | 1018.2 |
| 20260509135142 | 51 | 286 | 1.0 | 6.0 | 0.00 | 0.00 | 0.00 | 43 | 1018.1 |
| 20260509134122 | 50 | 279 | 1.0 | 7.0 | 0.00 | 0.00 | 0.00 | 42 | 1018.0 |
| 20260509133121 | 50 | 276 | 1.0 | 2.0 | 0.00 | 0.00 | 0.00 | 42 | 1017.9 |
| 20260509132122 | 49 | 290 | 1.0 | 4.0 | 0.00 | 0.00 | 0.00 | 41 | 1017.8 |
| 20260509131122 | 49 | 292 | 2.0 | 4.0 | 0.00 | 0.00 | 0.00 | 41 | 1017.7 |
| 20260509130122 | 49 | 287 | 3.0 | 8.0 | 0.00 | 0.00 | 0.00 | 40 | 1017.5 |
| 20260509125122 | 50 | 289 | 3.0 | 8.0 | 0.00 | 0.00 | 0.00 | 39 | 1017.5 |
| 20260509124143 | 50 | 291 | 3.0 | 11.0 | 0.00 | 0.00 | 0.00 | 40 | 1017.3 |
| 20260509123123 | 51 | 288 | 4.0 | 10.0 | 0.00 | 0.00 | 0.00 | 38 | 1017.2 |
| 20260509122122 | 52 | 303 | 3.0 | 10.0 | 0.00 | 0.00 | 0.00 | 34 | 1017.1 |
| 20260509121122 | 52 | 290 | 3.0 | 7.0 | 0.00 | 0.00 | 0.00 | 34 | 1017.1 |
| 20260509120122 | 51 | 310 | 3.0 | 5.0 | 0.00 | 0.00 | 0.00 | 35 | 1017.1 |
| 20260509115122 | 51 | 289 | 2.0 | 8.0 | 0.00 | 0.00 | 0.00 | 37 | 1017.2 |
| 20260509114122 | 51 | 301 | 2.0 | 6.0 | 0.00 | 0.00 | 0.00 | 38 | 1017.2 |
| 20260509113143 | 51 | 286 | 3.0 | 8.0 | 0.00 | 0.00 | 0.00 | 38 | 1017.2 |
| 20260509112143 | 51 | 284 | 2.0 | 8.0 | 0.00 | 0.00 | 0.00 | 38 | 1017.1 |
| 20260509111122 | 52 | 289 | 2.0 | 7.0 | 0.00 | 0.00 | 0.00 | 36 | 1017.1 |
| 20260509110122 | 52 | 280 | 6.0 | 11.0 | 0.00 | 0.00 | 0.00 | 37 | 1017.0 |
| 20260509105122 | 53 | 277 | 9.0 | 12.0 | 0.00 | 0.00 | 0.00 | 35 | 1017.0 |
| 20260509104122 | 54 | 277 | 7.0 | 12.0 | 0.00 | 0.00 | 0.00 | 34 | 1016.9 |
| 20260509103122 | 56 | 276 | 5.0 | 10.0 | 0.00 | 0.00 | 0.00 | 31 | 1017.0 |
| 20260509102122 | 57 | 297 | 4.0 | 9.0 | 0.00 | 0.00 | 0.00 | 29 | 1017.0 |
| 20260509101122 | 57 | 292 | 2.0 | 7.0 | 0.00 | 0.00 | 0.00 | 29 | 1017.1 |
| 20260509100143 | 57 | 319 | 3.0 | 11.0 | 0.00 | 0.00 | 0.00 | 29 | 1017.0 |
| 20260509095143 | 56 | 309 | 5.0 | 16.0 | 0.00 | 0.00 | 0.00 | 31 | 1017.0 |
| 20260509094122 | 54 | 323 | 9.0 | 19.0 | 0.00 | 0.00 | 0.00 | 34 | 1016.8 |
| 20260509093124 | 49 | 309 | 4.0 | 10.0 | 0.00 | 0.00 | 0.00 | 44 | 1016.4 |
| 20260509092122 | 47 | 317 | 2.0 | 13.0 | 0.00 | 0.00 | 0.00 | 61 | 1016.6 |
| 20260509091143 | 47 | 104 | 1.0 | 3.0 | 0.00 | 0.00 | 0.00 | 66 | 1016.6 |
| 20260509090122 | 47 | 149 | 1.0 | 4.0 | 0.00 | 0.00 | 0.00 | 66 | 1016.5 |
| 20260509085143 | 47 | 0 | 0.0 | 0.0 | 0.00 | 0.00 | 0.00 | 66 | 1016.4 |
| 20260509084122 | 47 | 0 | 0.0 | 0.0 | 0.00 | 0.00 | 0.00 | 65 | 1016.4 |
| 20260509083143 | 48 | 0 | 0.0 | 0.0 | 0.00 | 0.00 | 0.00 | 63 | 1016.3 |
| 20260509082122 | 48 | 0 | 0.0 | 0.0 | 0.00 | 0.00 | 0.00 | 62 | 1016.3 |
| 20260509081122 | 48 | 328 | 0.0 | 1.0 | 0.00 | 0.00 | 0.00 | 61 | 1016.3 |
| 20260509080122 | 48 | 333 | 1.0 | 4.0 | 0.00 | 0.00 | 0.00 | 62 | 1016.3 |
| 20260509075122 | 48 | 331 | 1.0 | 4.0 | 0.00 | 0.00 | 0.00 | 62 | 1016.4 |
| 20260509074122 | 48 | 328 | 0.0 | 3.0 | 0.00 | 0.00 | 0.00 | 62 | 1016.4 |
| 20260509073122 | 49 | 288 | 2.0 | 4.0 | 0.00 | 0.00 | 0.00 | 61 | 1016.3 |
| 20260509072122 | 50 | 0 | 0.0 | 1.0 | 0.00 | 0.00 | 0.00 | 60 | 1016.3 |
| 20260509071143 | 50 | 136 | 0.0 | 2.0 | 0.00 | 0.00 | 0.00 | 58 | 1016.2 |
| 20260509070122 | 50 | 0 | 0.0 | 0.0 | 0.00 | 0.00 | 0.00 | 59 | 1016.2 |
| 20260509065122 | 51 | 136 | 0.0 | 2.0 | 0.00 | 0.00 | 0.00 | 59 | 1016.0 |
| 20260509064122 | 51 | 137 | 0.0 | 2.0 | 0.00 | 0.00 | 0.00 | 56 | 1015.8 |
| 20260509063143 | 51 | 276 | 0.0 | 2.0 | 0.00 | 0.00 | 0.00 | 53 | 1015.7 |
| 20260509062122 | 52 | 266 | 0.0 | 2.0 | 0.00 | 0.00 | 0.00 | 53 | 1015.8 |
| 20260509061122 | 52 | 0 | 0.0 | 0.0 | 0.00 | 0.00 | 0.00 | 52 | 1015.7 |
| 20260509055143 | 53 | 266 | 1.0 | 3.0 | 0.00 | 0.00 | 0.00 | 51 | 1015.8 |
| 20260509054122 | 54 | 243 | 1.0 | 4.0 | 0.00 | 0.00 | 0.00 | 50 | 1015.7 |
| 20260509053122 | 55 | 0 | 0.0 | 0.0 | 0.00 | 0.00 | 0.00 | 49 | 1015.6 |
| 20260509052122 | 55 | 132 | 0.0 | 2.0 | 0.00 | 0.00 | 0.00 | 48 | 1015.6 |
| 20260509051122 | 55 | 0 | 0.0 | 0.0 | 0.00 | 0.00 | 0.00 | 48 | 1015.6 |
| 20260509050122 | 55 | 132 | 0.0 | 3.0 | 0.00 | 0.00 | 0.00 | 48 | 1015.6 |
| 20260509045122 | 56 | 200 | 1.0 | 3.0 | 0.00 | 0.00 | 0.00 | 49 | 1015.4 |
| 20260509044122 | 56 | 279 | 0.0 | 2.0 | 0.00 | 0.00 | 0.00 | 46 | 1015.3 |
| 20260509043143 | 56 | 279 | 1.0 | 3.0 | 0.00 | 0.00 | 0.00 | 44 | 1015.2 |
| 20260509042143 | 57 | 279 | 1.0 | 4.0 | 0.00 | 0.00 | 0.00 | 45 | 1015.1 |
| 20260509041122 | 57 | 279 | 2.0 | 4.0 | 0.00 | 0.00 | 0.00 | 45 | 1015.0 |
| 20260509040122 | 58 | 279 | 2.0 | 4.0 | 0.00 | 0.00 | 0.00 | 44 | 1014.9 |
| 20260509035122 | 59 | 298 | 1.0 | 3.0 | 0.00 | 0.00 | 0.00 | 41 | 1014.7 |
| 20260509034122 | 60 | 332 | 0.0 | 1.0 | 0.00 | 0.00 | 0.00 | 40 | 1014.7 |
| 20260509033122 | 60 | 303 | 1.0 | 4.0 | 0.00 | 0.00 | 0.00 | 39 | 1014.4 |
| 20260509032122 | 61 | 284 | 0.0 | 4.0 | 0.00 | 0.00 | 0.00 | 40 | 1014.4 |
| 20260509031122 | 62 | 286 | 1.0 | 6.0 | 0.00 | 0.00 | 0.00 | 40 | 1014.3 |
| 20260509030122 | 63 | 291 | 2.0 | 6.0 | 0.00 | 0.00 | 0.00 | 41 | 1014.2 |
| 20260509025122 | 64 | 320 | 1.0 | 4.0 | 0.00 | 0.00 | 0.00 | 33 | 1014.0 |
| 20260509024122 | 65 | 345 | 2.0 | 5.0 | 0.00 | 0.00 | 0.00 | 31 | 1014.0 |
| 20260509023122 | 65 | 357 | 2.0 | 4.0 | 0.00 | 0.00 | 0.00 | 30 | 1013.7 |
| 20260509022122 | 66 | 21 | 3.0 | 7.0 | 0.00 | 0.00 | 0.00 | 28 | 1013.7 |
| 20260509021122 | 66 | 355 | 2.0 | 3.0 | 0.00 | 0.00 | 0.00 | 29 | 1013.7 |
| 20260509020122 | 67 | 346 | 2.0 | 5.0 | 0.00 | 0.00 | 0.00 | 28 | 1013.7 |
| 20260509015122 | 67 | 288 | 1.0 | 3.0 | 0.00 | 0.00 | 0.00 | 28 | 1013.7 |
| 20260509014122 | 68 | 277 | 1.0 | 3.0 | 0.00 | 0.00 | 0.00 | 29 | 1013.6 |